createdAt,value
2017-05-20T00:00:22.378Z,73.76
2017-05-20T00:01:24.213Z,74.15
2017-05-20T00:02:26.063Z,73.76
2017-05-20T00:03:27.917Z,73.28
2017-05-20T00:04:29.753Z,73.38
2017-05-20T00:05:31.599Z,73.95
2017-05-20T00:06:33.413Z,73.76
2017-05-20T00:07:47.640Z,73.86
2017-05-20T00:08:49.484Z,73.76
2017-05-20T00:09:51.303Z,73.19
2017-05-20T00:10:53.116Z,72.61
2017-05-20T00:11:54.943Z,72.94
2017-05-20T00:12:56.785Z,72.90
2017-05-20T00:13:58.634Z,72.74
2017-05-20T00:15:00.472Z,72.99
2017-05-20T00:16:02.291Z,73.28
2017-05-20T00:17:16.423Z,73.47
2017-05-20T00:18:18.269Z,73.47
2017-05-20T00:19:20.106Z,73.28
2017-05-20T00:20:21.950Z,73.47
2017-05-20T00:21:23.770Z,73.95
2017-05-20T00:22:25.615Z,74.05
2017-05-20T00:23:27.508Z,73.86
2017-05-20T00:24:29.326Z,74.72
2017-05-20T00:25:31.171Z,75.10
2017-05-20T00:26:45.347Z,75.20
2017-05-20T00:27:47.191Z,74.58
2017-05-20T00:28:49.133Z,75.10
2017-05-20T00:29:50.952Z,74.91
2017-05-20T00:30:52.769Z,74.43
2017-05-20T00:31:54.610Z,74.72
2017-05-20T00:32:56.431Z,74.43
2017-05-20T00:33:58.480Z,74.62
2017-05-20T00:35:00.294Z,74.72
2017-05-20T00:36:14.418Z,75.10
2017-05-20T00:37:16.241Z,75.39
2017-05-20T00:38:18.090Z,74.58
2017-05-20T00:39:19.930Z,75.35
2017-05-20T00:40:21.780Z,75.73
2017-05-20T00:41:23.613Z,76.21
2017-05-20T00:42:25.458Z,75.93
2017-05-20T00:43:27.279Z,75.93
2017-05-20T00:44:29.116Z,76.50
2017-05-20T00:45:43.216Z,76.89
2017-05-20T00:46:45.036Z,76.98
2017-05-20T00:47:46.884Z,76.89
2017-05-20T00:48:48.699Z,76.89
2017-05-20T00:49:50.641Z,76.79
2017-05-20T00:50:52.485Z,76.79
2017-05-20T00:51:54.302Z,76.79
2017-05-20T00:52:56.123Z,76.69
2017-05-20T00:53:57.974Z,76.60
2017-05-20T00:55:12.443Z,77.75
2017-05-20T00:56:14.287Z,77.75
2017-05-20T00:57:16.133Z,76.98
2017-05-20T00:58:17.947Z,76.98
2017-05-20T00:59:19.765Z,76.89
2017-05-20T01:00:21.628Z,76.60
2017-05-20T01:01:23.449Z,76.89
2017-05-20T01:02:25.295Z,77.46
2017-05-20T01:03:27.135Z,77.65
2017-05-20T01:04:41.559Z,78.19
2017-05-20T01:05:43.406Z,78.57
2017-05-20T01:06:45.221Z,78.47
2017-05-20T01:07:47.063Z,78.28
2017-05-20T01:08:48.908Z,78.19
2017-05-20T01:09:50.749Z,78.38
2017-05-20T01:10:52.696Z,78.57
2017-05-20T01:11:54.542Z,78.38
2017-05-20T01:12:56.380Z,78.38
2017-05-20T01:14:10.484Z,78.51
2017-05-20T01:15:12.294Z,77.99
2017-05-20T01:16:14.115Z,77.90
2017-05-20T01:17:15.931Z,78.19
2017-05-20T01:18:17.750Z,79.05
2017-05-20T01:19:19.588Z,79.05
2017-05-20T01:20:21.404Z,78.86
2017-05-20T01:21:23.446Z,78.66
2017-05-20T01:22:25.294Z,78.38
2017-05-20T01:23:39.411Z,78.66
2017-05-20T01:24:41.256Z,78.19
2017-05-20T01:25:43.072Z,78.47
2017-05-20T01:26:45.087Z,78.76
2017-05-20T01:27:46.929Z,78.66
2017-05-20T01:28:48.742Z,78.38
2017-05-20T01:29:50.585Z,78.66
2017-05-20T01:30:52.429Z,77.90
2017-05-20T01:31:54.646Z,77.99
2017-05-20T01:33:08.865Z,78.09
2017-05-20T01:34:10.711Z,77.90
2017-05-20T01:35:12.555Z,77.99
2017-05-20T01:36:14.394Z,78.09
2017-05-20T01:37:16.262Z,77.90
2017-05-20T01:38:18.080Z,77.99
2017-05-20T01:39:19.898Z,78.19
2017-05-20T01:40:21.716Z,77.90
2017-05-20T01:41:23.557Z,78.09
2017-05-20T01:42:37.881Z,78.09
2017-05-20T01:43:39.726Z,78.09
2017-05-20T01:44:41.562Z,77.99
2017-05-20T01:45:43.406Z,78.34
2017-05-20T01:46:45.247Z,79.00
2017-05-20T01:47:47.112Z,78.76
2017-05-20T01:48:48.959Z,78.66
2017-05-20T01:49:50.772Z,78.63
2017-05-20T01:50:52.609Z,78.72
2017-05-20T01:52:06.855Z,79.58
2017-05-20T01:53:08.670Z,79.77
2017-05-20T01:54:10.493Z,79.87
2017-05-20T01:55:12.333Z,79.77
2017-05-20T01:56:14.153Z,79.87
2017-05-20T01:57:15.991Z,79.87
2017-05-20T01:58:17.859Z,79.77
2017-05-20T01:59:19.710Z,79.87
2017-05-20T02:00:21.555Z,80.54
2017-05-20T02:01:35.722Z,79.96
2017-05-20T02:02:37.571Z,80.25
2017-05-20T02:03:39.412Z,80.35
2017-05-20T02:04:41.265Z,80.25
2017-05-20T02:05:43.100Z,80.06
2017-05-20T02:06:44.920Z,79.96
2017-05-20T02:07:46.740Z,79.96
2017-05-20T02:08:48.583Z,79.87
2017-05-20T02:09:50.423Z,80.44
2017-05-20T02:11:04.559Z,80.54
2017-05-20T02:12:06.393Z,80.35
2017-05-20T02:13:08.219Z,79.96
2017-05-20T02:14:10.355Z,80.35
2017-05-20T02:15:12.196Z,80.06
2017-05-20T02:16:14.037Z,80.35
2017-05-20T02:17:15.862Z,80.06
2017-05-20T02:18:17.699Z,80.06
2017-05-20T02:19:19.745Z,80.25
2017-05-20T02:20:33.869Z,79.87
2017-05-20T02:21:35.707Z,80.35
2017-05-20T02:22:37.555Z,80.25
2017-05-20T02:23:39.399Z,80.25
2017-05-20T02:24:41.242Z,80.73
2017-05-20T02:25:43.059Z,80.92
2017-05-20T02:26:44.877Z,80.82
2017-05-20T02:27:46.720Z,80.44
2017-05-20T02:28:48.566Z,80.06
2017-05-20T02:30:02.991Z,80.16
2017-05-20T02:31:04.841Z,79.77
2017-05-20T02:32:06.677Z,79.87
2017-05-20T02:33:08.519Z,79.77
2017-05-20T02:34:10.358Z,79.29
2017-05-20T02:35:12.280Z,80.06
2017-05-20T02:36:14.096Z,80.16
2017-05-20T02:37:15.937Z,79.39
2017-05-20T02:38:17.761Z,79.68
2017-05-20T02:39:31.887Z,80.06
2017-05-20T02:40:33.727Z,80.35
2017-05-20T02:41:35.580Z,80.63
2017-05-20T02:42:37.418Z,80.06
2017-05-20T02:43:39.256Z,79.49
2017-05-20T02:44:41.076Z,79.87
2017-05-20T02:45:43.316Z,80.06
2017-05-20T02:46:45.136Z,79.87
2017-05-20T02:47:46.985Z,79.20
2017-05-20T02:49:01.110Z,79.49
2017-05-20T02:50:02.954Z,79.00
2017-05-20T02:51:04.974Z,79.00
2017-05-20T02:52:06.814Z,79.00
2017-05-20T02:53:08.637Z,79.20
2017-05-20T02:54:10.481Z,79.00
2017-05-20T02:55:12.330Z,78.34
2017-05-20T02:56:14.254Z,78.63
2017-05-20T02:57:16.100Z,78.24
2017-05-20T02:58:30.233Z,78.53
2017-05-20T02:59:32.076Z,78.05
2017-05-20T03:00:33.895Z,77.86
2017-05-20T03:01:35.935Z,77.95
2017-05-20T03:02:37.778Z,77.67
2017-05-20T03:03:39.631Z,77.67
2017-05-20T03:04:41.469Z,77.38
2017-05-20T03:05:43.293Z,77.38
2017-05-20T03:06:45.138Z,77.70
2017-05-20T03:07:59.261Z,77.00
2017-05-20T03:09:01.079Z,77.48
2017-05-20T03:10:02.898Z,77.48
2017-05-20T03:11:04.721Z,78.05
2017-05-20T03:12:06.965Z,77.95
2017-05-20T03:13:08.813Z,77.76
2017-05-20T03:14:10.656Z,77.09
2017-05-20T03:15:12.505Z,77.38
2017-05-20T03:16:14.403Z,77.00
2017-05-20T03:17:28.637Z,78.34
2017-05-20T03:18:30.485Z,78.43
2017-05-20T03:19:32.332Z,78.81
2017-05-20T03:20:34.151Z,78.43
2017-05-20T03:21:35.999Z,78.43
2017-05-20T03:22:38.240Z,78.34
2017-05-20T03:23:40.082Z,78.43
2017-05-20T03:24:41.930Z,78.14
2017-05-20T03:25:43.748Z,78.14
2017-05-20T03:26:57.849Z,77.86
2017-05-20T03:27:59.698Z,77.95
2017-05-20T03:29:01.544Z,78.20
2017-05-20T03:30:03.364Z,78.20
2017-05-20T03:31:05.215Z,78.68
2017-05-20T03:32:07.065Z,78.87
2017-05-20T03:33:09.206Z,78.68
2017-05-20T03:34:11.055Z,78.49
2017-05-20T03:35:12.898Z,78.49
2017-05-20T03:36:27.046Z,78.58
2017-05-20T03:37:28.864Z,78.58
2017-05-20T03:38:30.856Z,78.30
2017-05-20T03:39:32.655Z,78.30
2017-05-20T03:40:34.501Z,78.39
2017-05-20T03:41:36.351Z,78.97
2017-05-20T03:42:38.199Z,78.58
2017-05-20T03:43:40.239Z,78.39
2017-05-20T03:44:42.063Z,78.49
2017-05-20T03:45:56.212Z,77.72
2017-05-20T03:46:58.059Z,77.15
2017-05-20T03:47:59.913Z,77.72
2017-05-20T03:49:01.756Z,77.72
2017-05-20T03:50:03.598Z,77.34
2017-05-20T03:51:05.418Z,76.86
2017-05-20T03:52:07.242Z,77.19
2017-05-20T03:53:09.085Z,76.96
2017-05-20T03:54:11.234Z,76.67
2017-05-20T03:55:25.388Z,76.71
2017-05-20T03:56:27.234Z,76.67
2017-05-20T03:57:29.051Z,76.10
2017-05-20T03:58:30.874Z,76.33
2017-05-20T03:59:33.073Z,75.47
2017-05-20T04:00:34.912Z,75.95
2017-05-20T04:01:36.737Z,76.14
2017-05-20T04:02:38.553Z,75.95
2017-05-20T04:03:40.371Z,76.14
2017-05-20T04:04:54.551Z,75.85
2017-05-20T04:05:56.401Z,76.04
2017-05-20T04:06:58.246Z,75.66
2017-05-20T04:08:00.063Z,75.27
2017-05-20T04:09:01.886Z,75.47
2017-05-20T04:10:04.027Z,75.47
2017-05-20T04:11:05.854Z,75.66
2017-05-20T04:12:07.694Z,75.66
2017-05-20T04:13:09.519Z,76.33
2017-05-20T04:14:23.696Z,75.56
2017-05-20T04:15:25.542Z,75.85
2017-05-20T04:16:27.395Z,76.23
2017-05-20T04:17:29.213Z,76.71
2017-05-20T04:18:31.057Z,76.81
2017-05-20T04:19:32.881Z,77.38
2017-05-20T04:20:34.826Z,77.00
2017-05-20T04:21:36.676Z,77.00
2017-05-20T04:22:38.495Z,76.81
2017-05-20T04:23:52.684Z,76.71
2017-05-20T04:24:54.498Z,76.71
2017-05-20T04:25:56.518Z,76.90
2017-05-20T04:26:58.341Z,76.71
2017-05-20T04:28:00.160Z,76.90
2017-05-20T04:29:02.009Z,75.37
2017-05-20T04:30:03.838Z,75.85
2017-05-20T04:31:05.688Z,75.76
2017-05-20T04:32:07.537Z,75.95
2017-05-20T04:33:21.716Z,75.43
2017-05-20T04:34:23.539Z,76.33
2017-05-20T04:35:25.387Z,76.67
2017-05-20T04:36:27.235Z,76.71
2017-05-20T04:37:29.053Z,75.95
2017-05-20T04:38:30.882Z,75.85
2017-05-20T04:39:32.728Z,75.27
2017-05-20T04:40:34.553Z,75.18
2017-05-20T04:41:36.496Z,75.37
2017-05-20T04:42:50.599Z,74.61
2017-05-20T04:43:52.447Z,74.70
2017-05-20T04:44:54.298Z,74.70
2017-05-20T04:45:56.119Z,74.90
2017-05-20T04:46:58.259Z,75.27
2017-05-20T04:48:00.083Z,75.27
2017-05-20T04:49:01.906Z,74.99
2017-05-20T04:50:03.751Z,74.90
2017-05-20T04:51:05.573Z,74.99
2017-05-20T04:52:19.701Z,75.14
2017-05-20T04:53:21.553Z,74.48
2017-05-20T04:54:23.394Z,74.95
2017-05-20T04:55:25.221Z,74.70
2017-05-20T04:56:27.037Z,74.66
2017-05-20T04:57:28.863Z,74.95
2017-05-20T04:58:30.685Z,74.41
2017-05-20T04:59:32.502Z,74.80
2017-05-20T05:00:34.325Z,74.66
2017-05-20T05:01:48.534Z,74.28
2017-05-20T05:02:50.383Z,75.05
2017-05-20T05:03:52.236Z,74.48
2017-05-20T05:04:54.078Z,74.57
2017-05-20T05:05:55.935Z,74.48
2017-05-20T05:06:57.781Z,74.61
2017-05-20T05:07:59.655Z,73.94
2017-05-20T05:09:01.477Z,73.55
2017-05-20T05:10:03.331Z,72.98
2017-05-20T05:11:17.457Z,72.25
2017-05-20T05:12:19.309Z,71.07
2017-05-20T05:13:21.162Z,70.30
2017-05-20T05:14:22.982Z,70.87
2017-05-20T05:15:24.824Z,71.45
2017-05-20T05:16:26.650Z,71.51
2017-05-20T05:17:28.491Z,71.80
2017-05-20T05:18:30.369Z,71.99
2017-05-20T05:19:32.213Z,71.70
2017-05-20T05:20:46.402Z,71.93
2017-05-20T05:21:48.242Z,71.45
2017-05-20T05:22:50.095Z,71.16
2017-05-20T05:23:52.042Z,70.87
2017-05-20T05:24:53.871Z,70.68
2017-05-20T05:25:55.723Z,70.97
2017-05-20T05:26:57.566Z,71.45
2017-05-20T05:27:59.421Z,71.45
2017-05-20T05:29:01.673Z,71.22
2017-05-20T05:30:15.853Z,71.36
2017-05-20T05:31:17.672Z,70.97
2017-05-20T05:32:19.494Z,70.50
2017-05-20T05:33:21.322Z,70.30
2017-05-20T05:34:23.166Z,70.97
2017-05-20T05:35:25.016Z,70.50
2017-05-20T05:36:26.840Z,70.11
2017-05-20T05:37:28.694Z,69.73
2017-05-20T05:38:30.539Z,69.48
2017-05-20T05:39:44.695Z,68.52
2017-05-20T05:40:46.545Z,68.96
2017-05-20T05:41:48.398Z,68.49
2017-05-20T05:42:50.244Z,68.87
2017-05-20T05:43:52.074Z,69.54
2017-05-20T05:44:54.017Z,69.25
2017-05-20T05:45:55.863Z,69.44
2017-05-20T05:46:57.691Z,69.15
2017-05-20T05:47:59.541Z,69.44
2017-05-20T05:49:13.641Z,68.62
2017-05-20T05:50:15.460Z,68.90
2017-05-20T05:51:17.292Z,68.52
2017-05-20T05:52:19.135Z,68.04
2017-05-20T05:53:20.963Z,68.04
2017-05-20T05:54:22.815Z,68.01
2017-05-20T05:55:24.665Z,68.49
2017-05-20T05:56:26.492Z,69.35
2017-05-20T05:57:28.335Z,68.87
2017-05-20T05:58:42.471Z,68.68
2017-05-20T05:59:44.324Z,69.15
2017-05-20T06:00:46.169Z,69.35
2017-05-20T06:01:48.016Z,69.44
2017-05-20T06:02:49.834Z,69.06
2017-05-20T06:03:51.662Z,69.15
2017-05-20T06:04:53.510Z,69.41
2017-05-20T06:05:55.463Z,68.96
2017-05-20T06:06:57.312Z,69.44
2017-05-20T06:08:11.459Z,69.06
2017-05-20T06:09:13.286Z,68.96
2017-05-20T06:10:15.109Z,68.58
2017-05-20T06:11:17.132Z,67.82
2017-05-20T06:12:18.981Z,67.72
2017-05-20T06:13:20.831Z,67.91
2017-05-20T06:14:22.679Z,67.94
2017-05-20T06:15:24.532Z,67.76
2017-05-20T06:16:26.373Z,67.94
2017-05-20T06:17:40.485Z,67.94
2017-05-20T06:18:42.335Z,67.66
2017-05-20T06:19:44.160Z,67.56
2017-05-20T06:20:46.013Z,67.37
2017-05-20T06:21:47.832Z,67.66
2017-05-20T06:22:49.681Z,66.89
2017-05-20T06:23:51.527Z,67.37
2017-05-20T06:24:53.357Z,67.37
2017-05-20T06:25:55.207Z,67.66
2017-05-20T06:27:09.387Z,66.99
2017-05-20T06:28:11.213Z,67.18
2017-05-20T06:29:13.057Z,67.08
2017-05-20T06:30:14.880Z,66.61
2017-05-20T06:31:16.702Z,67.18
2017-05-20T06:32:18.750Z,67.08
2017-05-20T06:33:20.584Z,67.18
2017-05-20T06:34:22.424Z,66.89
2017-05-20T06:35:24.276Z,66.70
2017-05-20T06:36:38.616Z,66.35
2017-05-20T06:37:40.474Z,65.78
2017-05-20T06:38:42.296Z,65.01
2017-05-20T06:39:44.145Z,64.72
2017-05-20T06:40:45.997Z,65.01
2017-05-20T06:41:47.826Z,64.43
2017-05-20T06:42:49.697Z,64.43
2017-05-20T06:43:51.524Z,64.53
2017-05-20T06:44:53.376Z,64.53
2017-05-20T06:46:07.487Z,65.30
2017-05-20T06:47:09.312Z,64.43
2017-05-20T06:48:11.161Z,64.15
2017-05-20T06:49:12.981Z,63.76
2017-05-20T06:50:14.812Z,63.57
2017-05-20T06:51:16.668Z,63.86
2017-05-20T06:52:18.517Z,63.57
2017-05-20T06:53:20.396Z,63.70
2017-05-20T06:54:22.217Z,62.74
2017-05-20T06:55:36.401Z,62.07
2017-05-20T06:56:38.234Z,61.40
2017-05-20T06:57:40.078Z,61.50
2017-05-20T06:58:42.009Z,61.50
2017-05-20T06:59:43.854Z,62.17
2017-05-20T07:00:45.714Z,61.69
2017-05-20T07:01:47.564Z,61.40
2017-05-20T07:02:49.397Z,61.40
2017-05-20T07:03:51.243Z,61.11
2017-05-20T07:05:05.388Z,61.02
2017-05-20T07:06:07.233Z,61.50
2017-05-20T07:07:09.064Z,61.31
2017-05-20T07:08:10.915Z,61.50
2017-05-20T07:09:12.868Z,61.11
2017-05-20T07:10:14.718Z,60.96
2017-05-20T07:11:16.597Z,61.05
2017-05-20T07:12:18.438Z,61.05
2017-05-20T07:13:20.295Z,60.19
2017-05-20T07:14:34.453Z,59.52
2017-05-20T07:15:36.301Z,59.04
2017-05-20T07:16:38.138Z,59.52
2017-05-20T07:17:39.991Z,59.13
2017-05-20T07:18:41.846Z,59.13
2017-05-20T07:19:43.911Z,59.61
2017-05-20T07:20:45.764Z,59.52
2017-05-20T07:21:47.623Z,59.61
2017-05-20T07:22:49.478Z,60.00
2017-05-20T07:24:03.605Z,60.54
2017-05-20T07:25:05.434Z,61.11
2017-05-20T07:26:07.286Z,61.11
2017-05-20T07:27:09.140Z,61.88
2017-05-20T07:28:10.981Z,61.88
2017-05-20T07:29:12.811Z,61.88
2017-05-20T07:30:14.742Z,62.17
2017-05-20T07:31:16.591Z,62.17
2017-05-20T07:32:18.446Z,62.17
2017-05-20T07:33:32.631Z,61.63
2017-05-20T07:34:34.482Z,60.57
2017-05-20T07:35:36.336Z,59.83
2017-05-20T07:36:38.191Z,58.39
2017-05-20T07:37:40.127Z,58.30
2017-05-20T07:38:41.978Z,58.59
2017-05-20T07:39:43.850Z,58.11
2017-05-20T07:40:45.794Z,58.33
2017-05-20T07:41:47.715Z,57.37
2017-05-20T07:43:01.903Z,56.79
2017-05-20T07:44:03.760Z,56.70
2017-05-20T07:45:05.669Z,56.12
2017-05-20T07:46:07.572Z,56.89
2017-05-20T07:47:09.431Z,56.12
2017-05-20T07:48:11.272Z,56.24
2017-05-20T07:49:13.087Z,55.32
2017-05-20T07:50:14.950Z,54.93
2017-05-20T07:51:16.891Z,54.67
2017-05-20T07:52:31.201Z,53.32
2017-05-20T07:53:33.055Z,52.84
2017-05-20T07:54:34.902Z,53.23
2017-05-20T07:55:36.755Z,53.20
2017-05-20T07:56:38.617Z,54.06
2017-05-20T07:57:40.465Z,54.52
2017-05-20T07:58:42.297Z,54.58
2017-05-20T07:59:44.156Z,55.35
2017-05-20T08:00:46.000Z,56.31
2017-05-20T08:02:00.136Z,55.52
2017-05-20T08:03:01.963Z,55.80
2017-05-20T08:04:03.812Z,56.57
2017-05-20T08:05:05.638Z,57.15
2017-05-20T08:06:07.490Z,57.34
2017-05-20T08:07:09.346Z,57.24
2017-05-20T08:08:11.198Z,57.63
2017-05-20T08:09:13.055Z,57.72
2017-05-20T08:10:14.902Z,57.24
2017-05-20T08:11:29.066Z,56.38
2017-05-20T08:12:30.918Z,56.38
2017-05-20T08:13:32.750Z,56.51
2017-05-20T08:14:34.596Z,56.22
2017-05-20T08:15:36.427Z,56.29
2017-05-20T08:16:38.328Z,57.15
2017-05-20T08:17:40.192Z,57.70
2017-05-20T08:18:42.045Z,58.27
2017-05-20T08:19:43.895Z,59.48
2017-05-20T08:20:58.024Z,60.16
2017-05-20T08:21:59.852Z,60.83
2017-05-20T08:23:01.706Z,61.11
2017-05-20T08:24:03.555Z,61.79
2017-05-20T08:25:05.399Z,61.69
2017-05-20T08:26:07.223Z,61.50
2017-05-20T08:27:09.047Z,61.79
2017-05-20T08:28:10.999Z,61.50
2017-05-20T08:29:12.880Z,61.31
2017-05-20T08:30:27.085Z,60.93
2017-05-20T08:31:28.936Z,61.60
2017-05-20T08:32:30.784Z,61.66
2017-05-20T08:33:32.664Z,61.98
2017-05-20T08:34:34.545Z,62.07
2017-05-20T08:35:36.461Z,62.07
2017-05-20T08:36:38.277Z,61.79
2017-05-20T08:37:40.122Z,61.60
2017-05-20T08:38:41.973Z,61.11
2017-05-20T08:39:56.085Z,61.40
2017-05-20T08:40:57.908Z,61.50
2017-05-20T08:41:59.734Z,61.60
2017-05-20T08:43:01.589Z,61.15
2017-05-20T08:44:03.441Z,60.76
2017-05-20T08:45:05.295Z,61.34
2017-05-20T08:46:07.147Z,61.24
2017-05-20T08:47:09.003Z,61.43
2017-05-20T08:48:10.870Z,60.96
2017-05-20T08:49:25.187Z,60.93
2017-05-20T08:50:27.044Z,60.86
2017-05-20T08:51:28.873Z,61.05
2017-05-20T08:52:30.723Z,60.86
2017-05-20T08:53:32.571Z,60.28
2017-05-20T08:54:34.625Z,60.19
2017-05-20T08:55:36.474Z,59.71
2017-05-20T08:56:38.299Z,60.19
2017-05-20T08:57:40.126Z,59.90
2017-05-20T08:58:54.533Z,59.23
2017-05-20T08:59:56.392Z,59.61
2017-05-20T09:00:58.243Z,59.71
2017-05-20T09:02:00.089Z,60.19
2017-05-20T09:03:01.915Z,60.00
2017-05-20T09:04:03.750Z,60.86
2017-05-20T09:05:05.598Z,61.43
2017-05-20T09:06:07.451Z,61.05
2017-05-20T09:07:09.282Z,59.90
2017-05-20T09:08:23.463Z,59.90
2017-05-20T09:09:25.318Z,59.90
2017-05-20T09:10:27.182Z,58.69
2017-05-20T09:11:29.026Z,58.11
2017-05-20T09:12:30.881Z,57.65
2017-05-20T09:13:32.728Z,56.70
2017-05-20T09:14:34.562Z,56.24
2017-05-20T09:15:36.509Z,55.41
2017-05-20T09:16:38.346Z,54.83
2017-05-20T09:17:52.815Z,53.20
2017-05-20T09:18:54.769Z,53.01
2017-05-20T09:19:56.616Z,53.66
2017-05-20T09:20:58.491Z,54.61
2017-05-20T09:22:00.318Z,54.97
2017-05-20T09:23:02.175Z,55.83
2017-05-20T09:24:04.026Z,56.22
2017-05-20T09:25:05.877Z,56.51
2017-05-20T09:26:07.734Z,56.79
2017-05-20T09:27:21.863Z,55.93
2017-05-20T09:28:23.693Z,55.83
2017-05-20T09:29:25.543Z,56.51
2017-05-20T09:30:27.596Z,56.41
2017-05-20T09:31:42.816Z,55.80
2017-05-20T09:32:44.675Z,56.19
2017-05-20T09:33:46.522Z,57.89
2017-05-20T09:34:48.371Z,58.17
2017-05-20T09:35:50.206Z,57.60
2017-05-20T09:37:04.443Z,57.60
2017-05-20T09:38:06.287Z,58.39
2017-05-20T09:39:08.119Z,58.30
2017-05-20T09:40:09.945Z,58.11
2017-05-20T09:41:11.802Z,57.24
2017-05-20T09:42:13.673Z,57.24
2017-05-20T09:43:15.502Z,57.70
2017-05-20T09:44:17.329Z,58.20
2017-05-20T09:45:19.157Z,57.43
2017-05-20T09:46:33.259Z,57.43
2017-05-20T09:47:35.088Z,58.01
2017-05-20T09:48:36.938Z,57.63
2017-05-20T09:49:38.795Z,57.37
2017-05-20T09:50:40.641Z,56.89
2017-05-20T09:51:42.473Z,56.79
2017-05-20T09:52:44.343Z,56.98
2017-05-20T09:53:46.173Z,56.79
2017-05-20T09:54:48.023Z,57.28
2017-05-20T09:56:02.186Z,57.18
2017-05-20T09:57:04.033Z,57.08
2017-05-20T09:58:05.892Z,56.98
2017-05-20T09:59:07.741Z,57.75
2017-05-20T10:00:09.593Z,57.56
2017-05-20T10:01:11.448Z,57.18
2017-05-20T10:02:13.303Z,57.28
2017-05-20T10:03:15.152Z,56.82
2017-05-20T10:04:16.984Z,56.63
2017-05-20T10:05:31.160Z,55.19
2017-05-20T10:06:33.010Z,55.47
2017-05-20T10:07:34.943Z,55.29
2017-05-20T10:08:36.864Z,55.47
2017-05-20T10:09:38.694Z,55.67
2017-05-20T10:10:40.520Z,54.90
2017-05-20T10:11:42.349Z,54.64
2017-05-20T10:12:44.209Z,54.16
2017-05-20T10:13:46.077Z,54.83
2017-05-20T10:15:00.431Z,54.55
2017-05-20T10:16:02.295Z,54.16
2017-05-20T10:17:04.123Z,55.00
2017-05-20T10:18:05.976Z,55.19
2017-05-20T10:19:07.902Z,54.90
2017-05-20T10:20:09.731Z,55.74
2017-05-20T10:21:11.582Z,56.02
2017-05-20T10:22:13.437Z,57.15
2017-05-20T10:23:15.288Z,57.63
2017-05-20T10:24:29.424Z,57.92
2017-05-20T10:25:31.440Z,57.63
2017-05-20T10:26:33.258Z,57.95
2017-05-20T10:27:35.095Z,57.28
2017-05-20T10:28:36.921Z,57.37
2017-05-20T10:29:38.776Z,56.34
2017-05-20T10:30:40.624Z,56.05
2017-05-20T10:31:42.456Z,55.83
2017-05-20T10:32:44.308Z,55.19
2017-05-20T10:33:58.639Z,54.97
2017-05-20T10:35:00.469Z,55.83
2017-05-20T10:36:02.325Z,56.60
2017-05-20T10:37:04.181Z,56.41
2017-05-20T10:38:06.035Z,56.12
2017-05-20T10:39:07.855Z,56.41
2017-05-20T10:40:09.784Z,56.41
2017-05-20T10:41:11.613Z,56.79
2017-05-20T10:42:13.462Z,57.56
2017-05-20T10:43:27.614Z,58.23
2017-05-20T10:44:29.457Z,57.72
2017-05-20T10:45:34.521Z,58.01
2017-05-20T10:46:36.544Z,57.63
2017-05-20T10:47:38.398Z,57.53
2017-05-20T10:48:40.257Z,57.95
2017-05-20T10:49:42.117Z,58.04
2017-05-20T10:50:43.985Z,58.14
2017-05-20T10:51:45.815Z,57.56
2017-05-20T10:52:59.950Z,56.41
2017-05-20T10:54:01.808Z,56.89
2017-05-20T10:55:03.665Z,57.37
2017-05-20T10:56:05.709Z,57.72
2017-05-20T10:57:07.541Z,57.72
2017-05-20T10:58:09.394Z,57.72
2017-05-20T10:59:11.243Z,57.82
2017-05-20T11:00:13.100Z,57.63
2017-05-20T11:01:15.203Z,58.20
2017-05-20T11:02:29.341Z,58.20
2017-05-20T11:03:31.213Z,58.30
2017-05-20T11:04:33.058Z,58.87
2017-05-20T11:05:34.868Z,59.06
2017-05-20T11:06:36.718Z,58.97
2017-05-20T11:07:38.563Z,58.42
2017-05-20T11:08:40.390Z,58.14
2017-05-20T11:09:42.218Z,58.14
2017-05-20T11:10:44.071Z,57.95
2017-05-20T11:11:58.237Z,57.95
2017-05-20T11:13:00.089Z,57.01
2017-05-20T11:14:01.937Z,56.44
2017-05-20T11:15:03.796Z,55.89
2017-05-20T11:16:05.645Z,55.41
2017-05-20T11:17:07.495Z,55.32
2017-05-20T11:18:09.347Z,54.93
2017-05-20T11:19:11.213Z,55.02
2017-05-20T11:20:13.313Z,54.45
2017-05-20T11:21:29.540Z,55.19
2017-05-20T11:22:31.398Z,56.22
2017-05-20T11:23:47.018Z,56.22
2017-05-20T11:24:50.451Z,56.31
2017-05-20T11:25:52.317Z,56.51
2017-05-20T11:26:54.548Z,56.79
2017-05-20T11:27:56.430Z,57.37
2017-05-20T11:28:58.867Z,57.08
2017-05-20T11:30:03.086Z,57.75
2017-05-20T11:31:17.235Z,57.95
2017-05-20T11:32:19.679Z,57.65
2017-05-20T11:33:22.968Z,57.85
2017-05-20T11:34:31.338Z,57.85
2017-05-20T11:35:33.795Z,57.37
2017-05-20T11:36:49.369Z,56.79
2017-05-20T11:37:51.819Z,56.89
2017-05-20T11:38:54.117Z,57.18
2017-05-20T11:39:57.982Z,57.46
2017-05-20T11:41:13.683Z,57.28
2017-05-20T11:42:19.561Z,56.89
2017-05-20T11:43:22.051Z,56.79
2017-05-20T11:44:24.131Z,56.98
2017-05-20T11:45:26.612Z,57.21
2017-05-20T11:46:29.057Z,56.05
2017-05-20T11:47:44.758Z,55.96
2017-05-20T11:48:46.861Z,55.47
2017-05-20T11:49:49.377Z,55.38
2017-05-20T11:51:17.228Z,55.10
2017-05-20T11:52:20.673Z,55.10
2017-05-20T11:53:24.117Z,54.90
2017-05-20T11:54:25.949Z,55.19
2017-05-20T11:55:28.056Z,55.47
2017-05-20T11:56:30.105Z,55.77
2017-05-20T11:57:33.707Z,55.19
2017-05-20T11:58:36.964Z,55.29
2017-05-20T11:59:38.811Z,54.90
2017-05-20T12:00:54.411Z,54.80
2017-05-20T12:01:56.873Z,55.38
2017-05-20T12:03:00.332Z,55.38
2017-05-20T12:04:02.179Z,55.57
2017-05-20T12:05:04.981Z,55.77
2017-05-20T12:06:06.862Z,56.05
2017-05-20T12:07:09.892Z,56.34
2017-05-20T12:08:15.760Z,56.15
2017-05-20T12:09:18.225Z,56.24
2017-05-20T12:10:33.998Z,55.86
2017-05-20T12:11:35.850Z,56.22
2017-05-20T12:12:37.708Z,56.82
2017-05-20T12:13:39.561Z,56.73
2017-05-20T12:14:41.406Z,56.34
2017-05-20T12:15:43.233Z,55.99
2017-05-20T12:16:45.264Z,55.41
2017-05-20T12:17:47.123Z,54.93
2017-05-20T12:18:48.948Z,55.77
2017-05-20T12:20:03.125Z,55.47
2017-05-20T12:21:04.975Z,55.12
2017-05-20T12:22:07.005Z,55.10
2017-05-20T12:23:08.904Z,54.93
2017-05-20T12:24:10.777Z,55.02
2017-05-20T12:25:12.719Z,54.64
2017-05-20T12:26:14.571Z,54.93
2017-05-20T12:27:16.419Z,54.64
2017-05-20T12:28:18.243Z,54.35
2017-05-20T12:29:32.425Z,54.06
2017-05-20T12:30:34.292Z,53.68
2017-05-20T12:31:36.132Z,54.55
2017-05-20T12:32:38.252Z,54.80
2017-05-20T12:33:40.086Z,55.19
2017-05-20T12:34:41.909Z,55.19
2017-05-20T12:35:43.867Z,55.96
2017-05-20T12:36:45.828Z,55.86
2017-05-20T12:37:47.858Z,55.83
2017-05-20T12:39:02.132Z,56.60
2017-05-20T12:40:03.961Z,56.41
2017-05-20T12:41:05.786Z,56.60
2017-05-20T12:42:07.663Z,57.37
2017-05-20T12:43:09.563Z,57.28
2017-05-20T12:44:11.428Z,56.98
2017-05-20T12:45:13.377Z,56.22
2017-05-20T12:46:15.452Z,56.22
2017-05-20T12:47:17.403Z,55.93
2017-05-20T12:48:31.681Z,55.45
2017-05-20T12:49:33.525Z,55.29
2017-05-20T12:50:35.357Z,54.78
2017-05-20T12:51:37.182Z,55.00
2017-05-20T12:52:39.014Z,54.97
2017-05-20T12:53:41.083Z,55.16
2017-05-20T12:54:42.950Z,55.16
2017-05-20T12:55:44.920Z,55.74
2017-05-20T12:56:46.767Z,55.47
2017-05-20T12:58:00.937Z,55.16
2017-05-20T12:59:02.792Z,55.29
2017-05-20T13:00:05.646Z,55.29
2017-05-20T13:01:08.129Z,55.10
2017-05-20T13:02:11.588Z,55.77
2017-05-20T13:03:13.418Z,54.64
2017-05-20T13:04:15.479Z,54.57
2017-05-20T13:05:18.927Z,54.09
2017-05-20T13:06:21.720Z,53.61
2017-05-20T13:07:37.292Z,52.94
2017-05-20T13:08:40.337Z,53.23
2017-05-20T13:09:56.116Z,52.75
2017-05-20T13:11:11.682Z,52.94
2017-05-20T13:12:19.806Z,52.55
2017-05-20T13:13:22.634Z,52.46
2017-05-20T13:14:26.061Z,52.65
2017-05-20T13:15:10.814Z,53.03
2017-05-20T13:16:12.848Z,52.65
2017-05-20T13:17:16.320Z,52.65
2017-05-20T13:18:18.790Z,53.42
2017-05-20T13:19:21.605Z,53.42
2017-05-20T13:20:24.780Z,53.70
2017-05-20T13:21:09.425Z,53.32
2017-05-20T13:22:11.861Z,53.80
2017-05-20T13:23:15.297Z,53.49
2017-05-20T13:24:18.773Z,53.68
2017-05-20T13:25:23.022Z,54.25
2017-05-20T13:26:25.168Z,54.64
2017-05-20T13:27:28.638Z,54.93
2017-05-20T13:28:32.080Z,54.74
2017-05-20T13:29:47.702Z,54.93
2017-05-20T13:31:02.446Z,54.25
2017-05-20T13:32:04.908Z,54.74
2017-05-20T13:33:09.789Z,54.45
2017-05-20T13:34:12.898Z,54.83
2017-05-20T13:35:28.427Z,54.64
2017-05-20T13:36:36.744Z,55.41